Ayr, North Dakota
Current Conditions -  °F | °C
As of 9:55 PM on Sunday 21 Dec 2014 (Local Time) from KBAC Reporting Station
Haze Haze  
Wind Chill: 25°   Ceiling: 600
Heat Index: 32°   Visibility: 4mi
Dew Point: 32°   Wind: 8mph
Humidity: 100%   Direction: 140°SE
Pressure: 29.5"   Gusts: NA
Location:  47.04°N, 97.49°W
Report Text: KBAC 220355Z AUTO 14007KT 4SM BR OVC006 00/00 A2950 RMK AO2
Loading
Personal Weather Stations






























Interactive Weather Map New forecast layout! Learn more

10-Day Weather Forecast

Advertisements
Track Severe Weather on mobile